sensor_id;sensor_type;location;lat;lon;timestamp;P1;durP1;ratioP1;P2;durP2;ratioP2
77046;SDS011;65977;56.380;44.022;2023-03-23T00:01:26;11.55;;;8.15;;
77046;SDS011;65977;56.380;44.022;2023-03-23T00:03:56;11.90;;;7.60;;
77046;SDS011;65977;56.380;44.022;2023-03-23T00:06:23;14.52;;;8.07;;
77046;SDS011;65977;56.380;44.022;2023-03-23T00:08:51;11.13;;;6.03;;
77046;SDS011;65977;56.380;44.022;2023-03-23T00:11:22;14.65;;;7.65;;
77046;SDS011;65977;56.380;44.022;2023-03-23T00:13:52;12.02;;;7.18;;
77046;SDS011;65977;56.380;44.022;2023-03-23T00:16:19;11.98;;;7.97;;
77046;SDS011;65977;56.380;44.022;2023-03-23T00:18:56;8.68;;;6.78;;
77046;SDS011;65977;56.380;44.022;2023-03-23T00:21:28;12.43;;;7.65;;
77046;SDS011;65977;56.380;44.022;2023-03-23T00:23:59;10.30;;;7.10;;
77046;SDS011;65977;56.380;44.022;2023-03-23T00:26:31;13.13;;;8.68;;
77046;SDS011;65977;56.380;44.022;2023-03-23T00:28:59;11.93;;;6.93;;
77046;SDS011;65977;56.380;44.022;2023-03-23T00:31:27;14.52;;;7.88;;
77046;SDS011;65977;56.380;44.022;2023-03-23T00:34:01;11.80;;;7.30;;
77046;SDS011;65977;56.380;44.022;2023-03-23T00:36:32;10.98;;;6.78;;
77046;SDS011;65977;56.380;44.022;2023-03-23T00:39:03;9.60;;;5.97;;
77046;SDS011;65977;56.380;44.022;2023-03-23T00:41:29;10.43;;;6.88;;
77046;SDS011;65977;56.380;44.022;2023-03-23T00:43:56;8.95;;;6.30;;
77046;SDS011;65977;56.380;44.022;2023-03-23T00:46:26;10.00;;;7.20;;
77046;SDS011;65977;56.380;44.022;2023-03-23T00:48:53;10.13;;;6.28;;
77046;SDS011;65977;56.380;44.022;2023-03-23T00:51:20;11.65;;;7.22;;
77046;SDS011;65977;56.380;44.022;2023-03-23T00:53:46;11.70;;;7.63;;
77046;SDS011;65977;56.380;44.022;2023-03-23T00:56:12;10.90;;;7.57;;
77046;SDS011;65977;56.380;44.022;2023-03-23T00:58:39;12.55;;;7.57;;
77046;SDS011;65977;56.380;44.022;2023-03-23T01:01:05;11.75;;;6.13;;
77046;SDS011;65977;56.380;44.022;2023-03-23T01:03:31;8.27;;;6.80;;
77046;SDS011;65977;56.380;44.022;2023-03-23T01:06:03;11.70;;;6.55;;
77046;SDS011;65977;56.380;44.022;2023-03-23T01:08:40;11.18;;;6.80;;
77046;SDS011;65977;56.380;44.022;2023-03-23T01:11:12;9.70;;;6.63;;
77046;SDS011;65977;56.380;44.022;2023-03-23T01:13:40;11.65;;;7.15;;
77046;SDS011;65977;56.380;44.022;2023-03-23T01:16:09;11.32;;;5.68;;
77046;SDS011;65977;56.380;44.022;2023-03-23T01:18:36;5.20;;;3.70;;
77046;SDS011;65977;56.380;44.022;2023-03-23T01:21:03;7.00;;;4.47;;
77046;SDS011;65977;56.380;44.022;2023-03-23T01:23:31;7.32;;;4.93;;
77046;SDS011;65977;56.380;44.022;2023-03-23T01:26:03;8.82;;;4.15;;
77046;SDS011;65977;56.380;44.022;2023-03-23T01:28:41;8.73;;;4.85;;
77046;SDS011;65977;56.380;44.022;2023-03-23T01:31:07;8.75;;;5.28;;
77046;SDS011;65977;56.380;44.022;2023-03-23T01:33:37;9.38;;;6.50;;
77046;SDS011;65977;56.380;44.022;2023-03-23T01:36:05;8.65;;;4.80;;
77046;SDS011;65977;56.380;44.022;2023-03-23T01:38:37;8.43;;;5.78;;
77046;SDS011;65977;56.380;44.022;2023-03-23T01:41:03;8.60;;;5.97;;
77046;SDS011;65977;56.380;44.022;2023-03-23T01:43:30;8.02;;;4.40;;
77046;SDS011;65977;56.380;44.022;2023-03-23T01:45:57;9.25;;;6.22;;
77046;SDS011;65977;56.380;44.022;2023-03-23T01:53:35;7.95;;;5.63;;
77046;SDS011;65977;56.380;44.022;2023-03-23T01:56:03;8.05;;;5.82;;
77046;SDS011;65977;56.380;44.022;2023-03-23T01:58:32;8.90;;;5.28;;
77046;SDS011;65977;56.380;44.022;2023-03-23T02:01:02;10.32;;;5.20;;
77046;SDS011;65977;56.380;44.022;2023-03-23T02:03:33;7.75;;;5.70;;
77046;SDS011;65977;56.380;44.022;2023-03-23T02:06:02;9.05;;;6.15;;
77046;SDS011;65977;56.380;44.022;2023-03-23T02:08:28;8.10;;;6.25;;
77046;SDS011;65977;56.380;44.022;2023-03-23T02:10:57;9.88;;;6.53;;
77046;SDS011;65977;56.380;44.022;2023-03-23T02:13:24;8.25;;;5.97;;
77046;SDS011;65977;56.380;44.022;2023-03-23T02:16:09;7.97;;;5.80;;
77046;SDS011;65977;56.380;44.022;2023-03-23T02:27:02;7.03;;;5.25;;
77046;SDS011;65977;56.380;44.022;2023-03-23T02:33:41;7.40;;;5.15;;
77046;SDS011;65977;56.380;44.022;2023-03-23T02:38:42;7.05;;;5.50;;
77046;SDS011;65977;56.380;44.022;2023-03-23T02:41:22;5.43;;;4.05;;
77046;SDS011;65977;56.380;44.022;2023-03-23T02:43:53;7.25;;;3.65;;
77046;SDS011;65977;56.380;44.022;2023-03-23T02:46:21;4.70;;;3.47;;
77046;SDS011;65977;56.380;44.022;2023-03-23T02:48:48;6.90;;;5.18;;
77046;SDS011;65977;56.380;44.022;2023-03-23T02:51:17;8.50;;;4.22;;
77046;SDS011;65977;56.380;44.022;2023-03-23T02:53:45;6.18;;;4.20;;
77046;SDS011;65977;56.380;44.022;2023-03-23T02:56:15;6.18;;;3.78;;
77046;SDS011;65977;56.380;44.022;2023-03-23T02:58:42;6.32;;;4.05;;
77046;SDS011;65977;56.380;44.022;2023-03-23T03:03:58;6.97;;;4.80;;
77046;SDS011;65977;56.380;44.022;2023-03-23T03:12:07;8.23;;;3.88;;
77046;SDS011;65977;56.380;44.022;2023-03-23T03:14:42;6.80;;;4.00;;
77046;SDS011;65977;56.380;44.022;2023-03-23T03:17:25;6.85;;;4.20;;
77046;SDS011;65977;56.380;44.022;2023-03-23T03:19:54;5.93;;;3.92;;
77046;SDS011;65977;56.380;44.022;2023-03-23T03:22:24;6.45;;;3.75;;
77046;SDS011;65977;56.380;44.022;2023-03-23T03:24:55;6.20;;;4.38;;
77046;SDS011;65977;56.380;44.022;2023-03-23T03:27:23;6.72;;;4.60;;
77046;SDS011;65977;56.380;44.022;2023-03-23T03:29:54;6.15;;;4.13;;
77046;SDS011;65977;56.380;44.022;2023-03-23T03:32:46;6.90;;;5.25;;
77046;SDS011;65977;56.380;44.022;2023-03-23T03:37:40;7.38;;;5.07;;
77046;SDS011;65977;56.380;44.022;2023-03-23T03:40:09;8.70;;;5.18;;
77046;SDS011;65977;56.380;44.022;2023-03-23T03:42:38;7.82;;;4.28;;
77046;SDS011;65977;56.380;44.022;2023-03-23T03:45:07;5.30;;;4.13;;
77046;SDS011;65977;56.380;44.022;2023-03-23T03:47:37;6.72;;;4.20;;
77046;SDS011;65977;56.380;44.022;2023-03-23T03:50:03;8.13;;;5.10;;
77046;SDS011;65977;56.380;44.022;2023-03-23T03:52:29;7.95;;;4.75;;
77046;SDS011;65977;56.380;44.022;2023-03-23T03:54:55;9.63;;;3.92;;
77046;SDS011;65977;56.380;44.022;2023-03-23T03:57:21;6.60;;;4.22;;
77046;SDS011;65977;56.380;44.022;2023-03-23T03:59:47;7.95;;;4.85;;
77046;SDS011;65977;56.380;44.022;2023-03-23T04:02:13;7.25;;;4.28;;
77046;SDS011;65977;56.380;44.022;2023-03-23T04:04:42;7.68;;;3.80;;
77046;SDS011;65977;56.380;44.022;2023-03-23T04:07:08;6.32;;;4.07;;
77046;SDS011;65977;56.380;44.022;2023-03-23T04:09:42;8.10;;;4.32;;
77046;SDS011;65977;56.380;44.022;2023-03-23T04:12:12;4.85;;;2.88;;
77046;SDS011;65977;56.380;44.022;2023-03-23T04:14:38;6.88;;;3.67;;
77046;SDS011;65977;56.380;44.022;2023-03-23T04:17:05;5.85;;;3.97;;
77046;SDS011;65977;56.380;44.022;2023-03-23T04:19:32;6.90;;;4.45;;
77046;SDS011;65977;56.380;44.022;2023-03-23T04:21:58;5.90;;;3.95;;
77046;SDS011;65977;56.380;44.022;2023-03-23T04:24:25;7.57;;;4.57;;
77046;SDS011;65977;56.380;44.022;2023-03-23T04:26:53;6.45;;;4.10;;
77046;SDS011;65977;56.380;44.022;2023-03-23T04:29:19;6.95;;;3.35;;
77046;SDS011;65977;56.380;44.022;2023-03-23T04:31:45;7.88;;;4.35;;
77046;SDS011;65977;56.380;44.022;2023-03-23T04:34:11;7.25;;;4.53;;
77046;SDS011;65977;56.380;44.022;2023-03-23T04:36:39;6.15;;;4.13;;
77046;SDS011;65977;56.380;44.022;2023-03-23T04:39:06;7.78;;;4.13;;
77046;SDS011;65977;56.380;44.022;2023-03-23T04:41:36;6.47;;;4.30;;
77046;SDS011;65977;56.380;44.022;2023-03-23T04:44:02;9.40;;;4.15;;
77046;SDS011;65977;56.380;44.022;2023-03-23T04:46:29;6.50;;;4.22;;
77046;SDS011;65977;56.380;44.022;2023-03-23T04:48:56;5.97;;;3.35;;
77046;SDS011;65977;56.380;44.022;2023-03-23T04:51:26;5.45;;;4.50;;
77046;SDS011;65977;56.380;44.022;2023-03-23T04:53:53;6.70;;;3.45;;
77046;SDS011;65977;56.380;44.022;2023-03-23T04:56:20;7.43;;;5.00;;
77046;SDS011;65977;56.380;44.022;2023-03-23T04:58:46;6.90;;;4.65;;
77046;SDS011;65977;56.380;44.022;2023-03-23T05:01:12;6.47;;;4.57;;
77046;SDS011;65977;56.380;44.022;2023-03-23T05:03:43;7.03;;;4.32;;
77046;SDS011;65977;56.380;44.022;2023-03-23T05:06:09;6.57;;;3.85;;
77046;SDS011;65977;56.380;44.022;2023-03-23T05:08:36;7.07;;;4.65;;
77046;SDS011;65977;56.380;44.022;2023-03-23T05:11:04;6.45;;;4.68;;
77046;SDS011;65977;56.380;44.022;2023-03-23T05:13:31;7.57;;;4.40;;
77046;SDS011;65977;56.380;44.022;2023-03-23T05:15:58;7.68;;;3.47;;
77046;SDS011;65977;56.380;44.022;2023-03-23T05:18:24;9.45;;;4.57;;
77046;SDS011;65977;56.380;44.022;2023-03-23T05:20:51;8.07;;;4.20;;
77046;SDS011;65977;56.380;44.022;2023-03-23T05:23:18;8.73;;;4.28;;
77046;SDS011;65977;56.380;44.022;2023-03-23T05:25:52;5.10;;;3.97;;
77046;SDS011;65977;56.380;44.022;2023-03-23T05:28:18;7.90;;;4.38;;
77046;SDS011;65977;56.380;44.022;2023-03-23T05:30:47;5.50;;;3.80;;
77046;SDS011;65977;56.380;44.022;2023-03-23T05:33:14;6.55;;;3.13;;
77046;SDS011;65977;56.380;44.022;2023-03-23T05:35:40;10.18;;;4.18;;
77046;SDS011;65977;56.380;44.022;2023-03-23T05:38:06;6.72;;;4.38;;
77046;SDS011;65977;56.380;44.022;2023-03-23T05:40:31;8.63;;;4.45;;
77046;SDS011;65977;56.380;44.022;2023-03-23T05:42:57;11.13;;;4.50;;
77046;SDS011;65977;56.380;44.022;2023-03-23T05:45:24;7.13;;;3.90;;
77046;SDS011;65977;56.380;44.022;2023-03-23T05:47:51;9.05;;;4.57;;
77046;SDS011;65977;56.380;44.022;2023-03-23T05:50:17;7.82;;;3.75;;
77046;SDS011;65977;56.380;44.022;2023-03-23T05:52:43;14.98;;;4.85;;
77046;SDS011;65977;56.380;44.022;2023-03-23T05:55:10;5.40;;;3.90;;
77046;SDS011;65977;56.380;44.022;2023-03-23T05:57:37;6.38;;;4.10;;
77046;SDS011;65977;56.380;44.022;2023-03-23T06:00:04;8.65;;;3.47;;
77046;SDS011;65977;56.380;44.022;2023-03-23T06:02:40;8.70;;;4.97;;
77046;SDS011;65977;56.380;44.022;2023-03-23T06:05:09;6.45;;;4.50;;
77046;SDS011;65977;56.380;44.022;2023-03-23T06:07:36;6.80;;;4.68;;
77046;SDS011;65977;56.380;44.022;2023-03-23T06:10:04;9.90;;;5.07;;
77046;SDS011;65977;56.380;44.022;2023-03-23T06:12:32;6.07;;;3.67;;
77046;SDS011;65977;56.380;44.022;2023-03-23T06:14:58;7.70;;;4.28;;
77046;SDS011;65977;56.380;44.022;2023-03-23T06:17:24;11.05;;;4.80;;
77046;SDS011;65977;56.380;44.022;2023-03-23T06:19:50;8.65;;;5.03;;
77046;SDS011;65977;56.380;44.022;2023-03-23T06:22:16;7.78;;;4.25;;
77046;SDS011;65977;56.380;44.022;2023-03-23T06:24:43;9.73;;;4.57;;
77046;SDS011;65977;56.380;44.022;2023-03-23T06:27:10;9.48;;;4.75;;
77046;SDS011;65977;56.380;44.022;2023-03-23T06:29:36;12.68;;;4.50;;
77046;SDS011;65977;56.380;44.022;2023-03-23T06:32:02;7.68;;;4.15;;
77046;SDS011;65977;56.380;44.022;2023-03-23T06:34:30;9.85;;;4.70;;
77046;SDS011;65977;56.380;44.022;2023-03-23T06:36:57;7.57;;;5.00;;
77046;SDS011;65977;56.380;44.022;2023-03-23T06:39:24;11.73;;;4.68;;
77046;SDS011;65977;56.380;44.022;2023-03-23T06:41:50;10.73;;;3.72;;
77046;SDS011;65977;56.380;44.022;2023-03-23T06:44:16;16.08;;;4.15;;
77046;SDS011;65977;56.380;44.022;2023-03-23T06:46:43;8.02;;;4.35;;
77046;SDS011;65977;56.380;44.022;2023-03-23T06:49:09;8.30;;;5.07;;
77046;SDS011;65977;56.380;44.022;2023-03-23T06:51:35;12.80;;;5.10;;
77046;SDS011;65977;56.380;44.022;2023-03-23T06:54:02;12.23;;;4.45;;
77046;SDS011;65977;56.380;44.022;2023-03-23T06:56:28;7.78;;;5.03;;
77046;SDS011;65977;56.380;44.022;2023-03-23T06:58:56;12.63;;;5.80;;
77046;SDS011;65977;56.380;44.022;2023-03-23T07:01:22;10.18;;;5.45;;
77046;SDS011;65977;56.380;44.022;2023-03-23T07:03:48;10.43;;;5.22;;
77046;SDS011;65977;56.380;44.022;2023-03-23T07:06:15;7.53;;;5.38;;
77046;SDS011;65977;56.380;44.022;2023-03-23T07:08:41;5.82;;;4.97;;
77046;SDS011;65977;56.380;44.022;2023-03-23T07:11:08;9.50;;;4.63;;
77046;SDS011;65977;56.380;44.022;2023-03-23T07:13:35;6.78;;;4.65;;
77046;SDS011;65977;56.380;44.022;2023-03-23T07:16:04;8.20;;;5.07;;
77046;SDS011;65977;56.380;44.022;2023-03-23T07:18:31;10.60;;;5.00;;
77046;SDS011;65977;56.380;44.022;2023-03-23T07:20:57;10.32;;;5.03;;
77046;SDS011;65977;56.380;44.022;2023-03-23T07:23:23;7.00;;;4.88;;
77046;SDS011;65977;56.380;44.022;2023-03-23T07:25:49;8.43;;;4.75;;
77046;SDS011;65977;56.380;44.022;2023-03-23T07:28:15;8.85;;;4.95;;
77046;SDS011;65977;56.380;44.022;2023-03-23T07:30:41;16.25;;;5.25;;
77046;SDS011;65977;56.380;44.022;2023-03-23T07:33:08;8.52;;;5.22;;
77046;SDS011;65977;56.380;44.022;2023-03-23T07:35:34;14.32;;;5.97;;
77046;SDS011;65977;56.380;44.022;2023-03-23T07:38:01;11.38;;;5.45;;
77046;SDS011;65977;56.380;44.022;2023-03-23T07:40:27;11.48;;;5.93;;
77046;SDS011;65977;56.380;44.022;2023-03-23T07:42:55;12.50;;;5.40;;
77046;SDS011;65977;56.380;44.022;2023-03-23T07:45:22;11.73;;;5.85;;
77046;SDS011;65977;56.380;44.022;2023-03-23T07:47:48;9.25;;;5.75;;
77046;SDS011;65977;56.380;44.022;2023-03-23T07:50:14;6.70;;;4.40;;
77046;SDS011;65977;56.380;44.022;2023-03-23T07:52:40;7.60;;;5.05;;
77046;SDS011;65977;56.380;44.022;2023-03-23T07:55:07;9.65;;;5.78;;
77046;SDS011;65977;56.380;44.022;2023-03-23T07:57:38;9.05;;;5.40;;
77046;SDS011;65977;56.380;44.022;2023-03-23T08:00:04;10.90;;;6.03;;
77046;SDS011;65977;56.380;44.022;2023-03-23T08:02:51;9.30;;;5.90;;
77046;SDS011;65977;56.380;44.022;2023-03-23T08:05:18;7.80;;;5.22;;
77046;SDS011;65977;56.380;44.022;2023-03-23T08:07:45;18.45;;;5.75;;
77046;SDS011;65977;56.380;44.022;2023-03-23T08:10:12;11.52;;;5.60;;
77046;SDS011;65977;56.380;44.022;2023-03-23T08:12:40;7.28;;;5.07;;
77046;SDS011;65977;56.380;44.022;2023-03-23T08:15:08;9.13;;;5.57;;
77046;SDS011;65977;56.380;44.022;2023-03-23T08:17:38;8.95;;;5.35;;
77046;SDS011;65977;56.380;44.022;2023-03-23T08:20:05;13.93;;;6.13;;
77046;SDS011;65977;56.380;44.022;2023-03-23T08:22:38;8.40;;;5.82;;
77046;SDS011;65977;56.380;44.022;2023-03-23T08:25:10;14.85;;;7.00;;
77046;SDS011;65977;56.380;44.022;2023-03-23T08:27:39;10.40;;;6.32;;
77046;SDS011;65977;56.380;44.022;2023-03-23T08:30:09;11.15;;;6.30;;
77046;SDS011;65977;56.380;44.022;2023-03-23T08:32:40;11.80;;;5.82;;
77046;SDS011;65977;56.380;44.022;2023-03-23T08:35:08;9.55;;;5.85;;
77046;SDS011;65977;56.380;44.022;2023-03-23T08:37:35;8.10;;;4.93;;
77046;SDS011;65977;56.380;44.022;2023-03-23T08:40:01;7.97;;;4.88;;
77046;SDS011;65977;56.380;44.022;2023-03-23T08:42:32;6.38;;;4.28;;
77046;SDS011;65977;56.380;44.022;2023-03-23T08:44:58;6.50;;;5.22;;
77046;SDS011;65977;56.380;44.022;2023-03-23T08:47:24;6.85;;;4.85;;
77046;SDS011;65977;56.380;44.022;2023-03-23T08:49:50;10.05;;;6.32;;
77046;SDS011;65977;56.380;44.022;2023-03-23T08:52:18;7.45;;;5.68;;
77046;SDS011;65977;56.380;44.022;2023-03-23T08:54:45;9.98;;;5.68;;
77046;SDS011;65977;56.380;44.022;2023-03-23T08:57:12;7.13;;;5.95;;
77046;SDS011;65977;56.380;44.022;2023-03-23T08:59:43;8.02;;;5.05;;
77046;SDS011;65977;56.380;44.022;2023-03-23T09:02:09;6.18;;;4.70;;
77046;SDS011;65977;56.380;44.022;2023-03-23T09:04:37;8.82;;;4.45;;
77046;SDS011;65977;56.380;44.022;2023-03-23T09:07:04;11.13;;;4.63;;
77046;SDS011;65977;56.380;44.022;2023-03-23T09:09:32;6.55;;;4.60;;
77046;SDS011;65977;56.380;44.022;2023-03-23T09:11:59;6.93;;;4.25;;
77046;SDS011;65977;56.380;44.022;2023-03-23T09:14:25;8.48;;;5.07;;
77046;SDS011;65977;56.380;44.022;2023-03-23T09:16:52;7.18;;;5.40;;
77046;SDS011;65977;56.380;44.022;2023-03-23T09:19:18;9.00;;;4.25;;
77046;SDS011;65977;56.380;44.022;2023-03-23T09:21:45;7.47;;;4.25;;
77046;SDS011;65977;56.380;44.022;2023-03-23T09:24:11;6.05;;;3.28;;
77046;SDS011;65977;56.380;44.022;2023-03-23T09:26:37;10.98;;;4.88;;
77046;SDS011;65977;56.380;44.022;2023-03-23T09:29:03;6.63;;;4.40;;
77046;SDS011;65977;56.380;44.022;2023-03-23T09:31:29;6.72;;;3.72;;
77046;SDS011;65977;56.380;44.022;2023-03-23T09:33:57;7.07;;;4.38;;
77046;SDS011;65977;56.380;44.022;2023-03-23T09:36:25;6.55;;;3.58;;
77046;SDS011;65977;56.380;44.022;2023-03-23T09:38:57;4.35;;;3.17;;
77046;SDS011;65977;56.380;44.022;2023-03-23T09:41:36;4.90;;;4.45;;
77046;SDS011;65977;56.380;44.022;2023-03-23T09:47:02;9.40;;;3.75;;
77046;SDS011;65977;56.380;44.022;2023-03-23T09:50:24;5.80;;;3.63;;
77046;SDS011;65977;56.380;44.022;2023-03-23T09:55:20;5.20;;;3.15;;
77046;SDS011;65977;56.380;44.022;2023-03-23T09:57:51;4.90;;;3.83;;
77046;SDS011;65977;56.380;44.022;2023-03-23T10:00:38;5.57;;;3.72;;
77046;SDS011;65977;56.380;44.022;2023-03-23T10:03:14;7.35;;;4.00;;
77046;SDS011;65977;56.380;44.022;2023-03-23T10:08:13;7.43;;;3.70;;
77046;SDS011;65977;56.380;44.022;2023-03-23T10:16:29;5.85;;;4.00;;
77046;SDS011;65977;56.380;44.022;2023-03-23T10:21:30;7.97;;;4.63;;
77046;SDS011;65977;56.380;44.022;2023-03-23T10:24:02;5.63;;;4.13;;
77046;SDS011;65977;56.380;44.022;2023-03-23T10:26:36;7.35;;;4.18;;
77046;SDS011;65977;56.380;44.022;2023-03-23T10:31:39;7.43;;;3.97;;
77046;SDS011;65977;56.380;44.022;2023-03-23T10:34:32;7.63;;;4.57;;
77046;SDS011;65977;56.380;44.022;2023-03-23T10:37:10;7.47;;;4.03;;
77046;SDS011;65977;56.380;44.022;2023-03-23T10:39:49;5.43;;;3.95;;
77046;SDS011;65977;56.380;44.022;2023-03-23T10:42:25;5.90;;;4.25;;
77046;SDS011;65977;56.380;44.022;2023-03-23T10:47:44;5.50;;;4.00;;
77046;SDS011;65977;56.380;44.022;2023-03-23T10:50:17;6.68;;;4.60;;
77046;SDS011;65977;56.380;44.022;2023-03-23T10:52:49;7.65;;;4.95;;
77046;SDS011;65977;56.380;44.022;2023-03-23T10:55:22;8.15;;;4.90;;
77046;SDS011;65977;56.380;44.022;2023-03-23T10:58:02;8.32;;;5.47;;
77046;SDS011;65977;56.380;44.022;2023-03-23T11:00:31;11.73;;;6.22;;
77046;SDS011;65977;56.380;44.022;2023-03-23T11:03:04;9.68;;;5.88;;
77046;SDS011;65977;56.380;44.022;2023-03-23T11:06:08;8.40;;;5.80;;
77046;SDS011;65977;56.380;44.022;2023-03-23T11:08:46;9.90;;;5.78;;
77046;SDS011;65977;56.380;44.022;2023-03-23T11:11:18;7.70;;;6.72;;
77046;SDS011;65977;56.380;44.022;2023-03-23T11:13:56;8.70;;;5.80;;
77046;SDS011;65977;56.380;44.022;2023-03-23T11:16:32;7.20;;;5.80;;
77046;SDS011;65977;56.380;44.022;2023-03-23T11:19:11;8.05;;;6.03;;
77046;SDS011;65977;56.380;44.022;2023-03-23T11:21:39;8.77;;;6.35;;
77046;SDS011;65977;56.380;44.022;2023-03-23T11:24:11;14.65;;;6.18;;
77046;SDS011;65977;56.380;44.022;2023-03-23T11:26:37;9.05;;;6.20;;
77046;SDS011;65977;56.380;44.022;2023-03-23T11:29:12;7.47;;;6.00;;
77046;SDS011;65977;56.380;44.022;2023-03-23T11:31:42;7.95;;;5.85;;
77046;SDS011;65977;56.380;44.022;2023-03-23T11:36:51;8.57;;;6.55;;
77046;SDS011;65977;56.380;44.022;2023-03-23T11:39:28;11.15;;;6.05;;
77046;SDS011;65977;56.380;44.022;2023-03-23T11:42:00;8.93;;;6.28;;
77046;SDS011;65977;56.380;44.022;2023-03-23T11:44:35;9.70;;;5.80;;
77046;SDS011;65977;56.380;44.022;2023-03-23T11:47:15;9.77;;;7.00;;
77046;SDS011;65977;56.380;44.022;2023-03-23T11:49:56;8.05;;;6.13;;
77046;SDS011;65977;56.380;44.022;2023-03-23T11:55:09;10.52;;;7.82;;
77046;SDS011;65977;56.380;44.022;2023-03-23T11:57:40;7.72;;;5.78;;
77046;SDS011;65977;56.380;44.022;2023-03-23T12:05:38;10.85;;;8.23;;
77046;SDS011;65977;56.380;44.022;2023-03-23T12:11:22;10.10;;;7.68;;
77046;SDS011;65977;56.380;44.022;2023-03-23T12:14:13;8.95;;;7.07;;
77046;SDS011;65977;56.380;44.022;2023-03-23T12:27:13;10.05;;;8.35;;
77046;SDS011;65977;56.380;44.022;2023-03-23T12:54:49;13.88;;;10.45;;
77046;SDS011;65977;56.380;44.022;2023-03-23T12:57:41;13.25;;;9.10;;
77046;SDS011;65977;56.380;44.022;2023-03-23T13:00:17;13.18;;;10.13;;
77046;SDS011;65977;56.380;44.022;2023-03-23T13:07:50;17.60;;;10.43;;
77046;SDS011;65977;56.380;44.022;2023-03-23T13:10:22;14.88;;;9.77;;
77046;SDS011;65977;56.380;44.022;2023-03-23T13:12:52;15.27;;;11.85;;
77046;SDS011;65977;56.380;44.022;2023-03-23T13:20:47;17.02;;;11.50;;
77046;SDS011;65977;56.380;44.022;2023-03-23T13:26:13;20.17;;;12.38;;
77046;SDS011;65977;56.380;44.022;2023-03-23T13:31:16;21.17;;;14.25;;
77046;SDS011;65977;56.380;44.022;2023-03-23T13:33:46;18.65;;;13.63;;
77046;SDS011;65977;56.380;44.022;2023-03-23T13:36:25;21.85;;;17.05;;
77046;SDS011;65977;56.380;44.022;2023-03-23T13:38:54;20.55;;;14.48;;
77046;SDS011;65977;56.380;44.022;2023-03-23T13:41:23;24.90;;;13.48;;
77046;SDS011;65977;56.380;44.022;2023-03-23T13:43:49;25.45;;;16.95;;
77046;SDS011;65977;56.380;44.022;2023-03-23T13:48:45;23.48;;;18.60;;
77046;SDS011;65977;56.380;44.022;2023-03-23T13:51:32;24.90;;;14.95;;
77046;SDS011;65977;56.380;44.022;2023-03-23T13:56:56;21.05;;;13.85;;
77046;SDS011;65977;56.380;44.022;2023-03-23T14:01:56;25.42;;;16.95;;
77046;SDS011;65977;56.380;44.022;2023-03-23T14:04:42;24.52;;;16.67;;
77046;SDS011;65977;56.380;44.022;2023-03-23T14:07:15;28.42;;;17.33;;
77046;SDS011;65977;56.380;44.022;2023-03-23T14:09:44;27.85;;;17.58;;
77046;SDS011;65977;56.380;44.022;2023-03-23T14:12:15;21.60;;;14.82;;
77046;SDS011;65977;56.380;44.022;2023-03-23T14:14:46;21.02;;;14.15;;
77046;SDS011;65977;56.380;44.022;2023-03-23T14:19:42;23.27;;;14.75;;
77046;SDS011;65977;56.380;44.022;2023-03-23T14:22:22;26.48;;;18.15;;
77046;SDS011;65977;56.380;44.022;2023-03-23T14:24:51;29.75;;;16.80;;
77046;SDS011;65977;56.380;44.022;2023-03-23T14:27:19;26.58;;;16.08;;
77046;SDS011;65977;56.380;44.022;2023-03-23T14:29:57;24.25;;;15.80;;
77046;SDS011;65977;56.380;44.022;2023-03-23T14:32:24;22.80;;;14.73;;
77046;SDS011;65977;56.380;44.022;2023-03-23T14:34:51;25.50;;;14.70;;
77046;SDS011;65977;56.380;44.022;2023-03-23T14:37:18;22.23;;;15.95;;
77046;SDS011;65977;56.380;44.022;2023-03-23T14:39:47;23.15;;;16.85;;
77046;SDS011;65977;56.380;44.022;2023-03-23T14:42:19;30.63;;;15.57;;
77046;SDS011;65977;56.380;44.022;2023-03-23T14:44:51;24.27;;;15.75;;
77046;SDS011;65977;56.380;44.022;2023-03-23T14:47:27;30.02;;;16.25;;
77046;SDS011;65977;56.380;44.022;2023-03-23T14:49:56;35.92;;;18.17;;
77046;SDS011;65977;56.380;44.022;2023-03-23T14:52:27;25.15;;;15.02;;
77046;SDS011;65977;56.380;44.022;2023-03-23T14:55:09;24.70;;;16.92;;
77046;SDS011;65977;56.380;44.022;2023-03-23T14:57:40;29.25;;;17.25;;
77046;SDS011;65977;56.380;44.022;2023-03-23T15:02:51;26.25;;;16.40;;
77046;SDS011;65977;56.380;44.022;2023-03-23T15:05:22;24.92;;;16.67;;
77046;SDS011;65977;56.380;44.022;2023-03-23T15:07:56;21.88;;;15.02;;
77046;SDS011;65977;56.380;44.022;2023-03-23T15:10:28;22.85;;;14.00;;
77046;SDS011;65977;56.380;44.022;2023-03-23T15:12:54;29.23;;;15.73;;
77046;SDS011;65977;56.380;44.022;2023-03-23T15:15:27;24.00;;;16.92;;
77046;SDS011;65977;56.380;44.022;2023-03-23T15:17:56;20.50;;;13.48;;
77046;SDS011;65977;56.380;44.022;2023-03-23T15:20:25;26.25;;;16.58;;
77046;SDS011;65977;56.380;44.022;2023-03-23T15:22:56;26.25;;;14.55;;
77046;SDS011;65977;56.380;44.022;2023-03-23T15:27:55;18.95;;;13.30;;
77046;SDS011;65977;56.380;44.022;2023-03-23T15:32:52;21.83;;;16.58;;
77046;SDS011;65977;56.380;44.022;2023-03-23T15:35:38;19.88;;;14.05;;
77046;SDS011;65977;56.380;44.022;2023-03-23T15:38:17;22.15;;;13.85;;
77046;SDS011;65977;56.380;44.022;2023-03-23T15:40:49;20.40;;;13.77;;
77046;SDS011;65977;56.380;44.022;2023-03-23T15:49:12;19.73;;;13.27;;
77046;SDS011;65977;56.380;44.022;2023-03-23T15:51:35;26.65;;;15.68;;
77046;SDS011;65977;56.380;44.022;2023-03-23T15:54:02;26.52;;;15.18;;
77046;SDS011;65977;56.380;44.022;2023-03-23T15:56:29;19.67;;;13.68;;
77046;SDS011;65977;56.380;44.022;2023-03-23T15:58:57;23.02;;;13.50;;
77046;SDS011;65977;56.380;44.022;2023-03-23T16:01:27;20.63;;;14.65;;
77046;SDS011;65977;56.380;44.022;2023-03-23T16:03:57;23.40;;;15.13;;
77046;SDS011;65977;56.380;44.022;2023-03-23T16:06:27;42.50;;;22.08;;
77046;SDS011;65977;56.380;44.022;2023-03-23T16:08:57;28.65;;;18.30;;
77046;SDS011;65977;56.380;44.022;2023-03-23T16:11:26;27.00;;;16.90;;
77046;SDS011;65977;56.380;44.022;2023-03-23T16:13:54;23.45;;;13.88;;
77046;SDS011;65977;56.380;44.022;2023-03-23T16:16:23;21.67;;;14.82;;
77046;SDS011;65977;56.380;44.022;2023-03-23T16:18:53;19.73;;;13.07;;
77046;SDS011;65977;56.380;44.022;2023-03-23T16:21:21;18.00;;;13.27;;
77046;SDS011;65977;56.380;44.022;2023-03-23T16:23:48;19.52;;;12.32;;
77046;SDS011;65977;56.380;44.022;2023-03-23T16:26:16;16.98;;;11.75;;
77046;SDS011;65977;56.380;44.022;2023-03-23T16:28:44;14.18;;;9.93;;
77046;SDS011;65977;56.380;44.022;2023-03-23T16:31:11;18.02;;;11.40;;
77046;SDS011;65977;56.380;44.022;2023-03-23T16:33:38;19.42;;;11.90;;
77046;SDS011;65977;56.380;44.022;2023-03-23T16:36:06;19.70;;;12.40;;
77046;SDS011;65977;56.380;44.022;2023-03-23T16:38:34;17.50;;;11.32;;
77046;SDS011;65977;56.380;44.022;2023-03-23T16:41:15;18.02;;;12.65;;
77046;SDS011;65977;56.380;44.022;2023-03-23T16:43:42;21.75;;;12.63;;
77046;SDS011;65977;56.380;44.022;2023-03-23T16:46:10;16.38;;;9.95;;
77046;SDS011;65977;56.380;44.022;2023-03-23T16:48:39;21.45;;;12.10;;
77046;SDS011;65977;56.380;44.022;2023-03-23T16:51:06;20.33;;;11.65;;
77046;SDS011;65977;56.380;44.022;2023-03-23T16:53:34;23.00;;;13.68;;
77046;SDS011;65977;56.380;44.022;2023-03-23T16:56:03;20.98;;;12.77;;
77046;SDS011;65977;56.380;44.022;2023-03-23T16:58:30;24.98;;;14.25;;
77046;SDS011;65977;56.380;44.022;2023-03-23T17:00:59;23.67;;;14.93;;
77046;SDS011;65977;56.380;44.022;2023-03-23T17:03:27;24.13;;;14.38;;